Pagina principale
METAR-TAF:

METAR-TAF

Aeroporti :

Aeroporto di Firenze-Peretola

Firenze, Italia

latitudine: 43-48N, longitudine: 011-12E, altezza: 40 m

Osservazione

Il bollettino è stato emesso 26 minuti fa, alle 09:50 UTC
Vento 6 kt da direzioni variabili
Temperature 10°C
Umidità 53%
Pressione 1019 hPa
Visibilità 10 km o più
Poco nuvoloso ad un'altezza di 4500 ft

METAR: LIRQ 180950Z VRB06KT 9999 FEW045 10/01 Q1019

Ora: 11:16 (10:16 UTC)

Previsione

Il bollettino è stato emesso 5 ore e 16 minuti fa, alle 05:00 UTC
Previsione valida dal 18 alle 06 UTC al 19 alle 06 UTC
Vento 13 kt da nord-est
Visibilità 10 km o più
Nubi sparse ad un'altezza di 6000 ft
Evoluzione graduale
dal 18 alle 18 UTC al 18 alle 20 UTC
Vento 5 kt da direzioni variabili

TAF: LIRQ 180500Z 1806/1906 04013KT 9999 SCT060 BECMG 1818/1820 VRB05KT

Osservazioni e previsioni meteorologiche di più di 4000 aeroporti (messaggi METAR e TAF).

Le stazioni disponibili sono rappresentate dai dischi gialli e rossi sulla carta.

Puntare il mouse per vedere il nome della stazione.

Clicca sopra per visualizzare le osservazioni e previsioni meteorologiche.

Per cambiare la mappa : fare clic sui pulsanti verdi con una croce nera per ingrandire, il pulsante verde con un trattino per diminuire, o sulla freccia verde per le mappe adiacenti.


METAR-TAF: